createdAt,value
2022-09-30T00:00:31.359Z,8.09
2022-09-30T00:03:16.848Z,8.05
2022-09-30T00:06:08.498Z,8.06
2022-09-30T00:08:55.918Z,8.16
2022-09-30T00:11:42.844Z,8.29
2022-09-30T00:14:28.409Z,8.37
2022-09-30T00:17:13.892Z,8.48
2022-09-30T00:19:59.176Z,8.47
2022-09-30T00:22:45.056Z,8.45
2022-09-30T00:25:30.684Z,8.39
2022-09-30T00:28:16.814Z,8.31
2022-09-30T00:31:06.573Z,8.22
2022-09-30T00:34:07.440Z,8.18
2022-09-30T00:36:55.856Z,8.16
2022-09-30T00:39:41.666Z,8.14
2022-09-30T00:42:30.158Z,8.13
2022-09-30T00:45:18.129Z,8.20
2022-09-30T00:48:06.893Z,8.20
2022-09-30T00:50:55.644Z,8.17
2022-09-30T00:54:00.094Z,8.17
2022-09-30T00:56:53.140Z,8.17
2022-09-30T00:59:43.369Z,8.18
2022-09-30T01:02:28.953Z,8.16
2022-09-30T01:05:14.756Z,8.21
2022-09-30T01:08:03.957Z,8.23
2022-09-30T01:10:49.322Z,8.25
2022-09-30T01:13:37.248Z,8.24
2022-09-30T01:16:44.147Z,8.23
2022-09-30T01:19:41.777Z,8.24
2022-09-30T01:23:14.597Z,8.23
2022-09-30T01:26:30.954Z,8.23
2022-09-30T01:29:40.516Z,8.21
2022-09-30T01:32:44.873Z,8.28
2022-09-30T01:35:48.941Z,8.30
2022-09-30T01:38:50.031Z,8.30
2022-09-30T01:41:50.267Z,8.26
2022-09-30T01:45:18.583Z,8.27
2022-09-30T01:48:29.034Z,8.29
2022-09-30T01:51:29.200Z,8.31
2022-09-30T01:54:17.575Z,8.28
2022-09-30T01:57:24.456Z,8.28
2022-09-30T02:00:11.740Z,8.32
2022-09-30T02:03:06.166Z,8.33
2022-09-30T02:05:58.292Z,8.44
2022-09-30T02:09:14.004Z,8.46
2022-09-30T02:12:05.008Z,8.44
2022-09-30T02:15:12.298Z,8.44
2022-09-30T02:18:27.336Z,8.48
2022-09-30T02:21:18.411Z,8.45
2022-09-30T02:24:10.032Z,8.50
2022-09-30T02:26:58.372Z,8.52
2022-09-30T02:29:50.335Z,8.58
2022-09-30T02:32:47.041Z,8.60
2022-09-30T02:35:35.256Z,8.63
2022-09-30T02:38:27.017Z,8.68
2022-09-30T02:41:21.775Z,8.77
2022-09-30T02:44:07.615Z,8.86
2022-09-30T02:47:16.345Z,8.94
2022-09-30T02:50:29.093Z,9.00
2022-09-30T02:53:35.446Z,9.10
2022-09-30T02:56:35.645Z,9.16
2022-09-30T02:59:23.622Z,9.21
2022-09-30T03:02:09.166Z,9.29
2022-09-30T03:04:54.599Z,9.34
2022-09-30T03:07:40.985Z,9.39
2022-09-30T03:10:27.744Z,9.45
2022-09-30T03:13:13.458Z,9.47
2022-09-30T03:16:04.903Z,9.47
2022-09-30T03:19:11.106Z,9.48
2022-09-30T03:22:11.703Z,9.55
2022-09-30T03:25:24.048Z,9.64
2022-09-30T03:28:32.649Z,9.69
2022-09-30T03:31:42.569Z,9.79
2022-09-30T03:35:04.075Z,9.95
2022-09-30T03:37:58.910Z,10.02
2022-09-30T03:40:44.457Z,10.04
2022-09-30T03:43:49.416Z,10.05
2022-09-30T03:46:51.877Z,10.13
2022-09-30T03:49:48.178Z,10.19
2022-09-30T03:52:35.428Z,10.23
2022-09-30T03:55:23.382Z,10.28
2022-09-30T03:58:09.601Z,10.27
2022-09-30T04:00:57.184Z,10.29
2022-09-30T04:03:43.342Z,10.29
2022-09-30T04:06:28.622Z,10.32
2022-09-30T04:09:14.280Z,10.33
2022-09-30T04:11:59.961Z,10.36
2022-09-30T04:14:45.337Z,10.35
2022-09-30T04:17:31.117Z,10.33
2022-09-30T04:20:16.396Z,10.30
2022-09-30T04:23:02.831Z,10.28
2022-09-30T04:25:55.181Z,10.30
2022-09-30T04:28:40.986Z,10.26
2022-09-30T04:31:26.745Z,10.30
2022-09-30T04:34:12.649Z,10.30
2022-09-30T04:36:58.054Z,10.25
2022-09-30T04:39:44.339Z,10.24
2022-09-30T04:42:29.936Z,10.20
2022-09-30T04:45:15.593Z,10.18
2022-09-30T04:48:01.546Z,10.18
2022-09-30T04:50:46.958Z,10.17
2022-09-30T04:53:33.051Z,10.18
2022-09-30T04:56:18.640Z,10.14
2022-09-30T04:59:04.223Z,10.13
2022-09-30T05:01:49.866Z,10.08
2022-09-30T05:04:35.117Z,10.07
2022-09-30T05:07:20.375Z,10.09
2022-09-30T05:10:07.585Z,10.09
2022-09-30T05:12:53.385Z,10.12
2022-09-30T05:15:38.772Z,10.11
2022-09-30T05:18:26.469Z,10.14
2022-09-30T05:21:14.380Z,10.15
2022-09-30T05:24:00.059Z,10.15
2022-09-30T05:26:45.359Z,10.15
2022-09-30T05:29:31.206Z,10.15
2022-09-30T05:32:18.540Z,10.15
2022-09-30T05:35:04.203Z,10.14
2022-09-30T05:37:49.787Z,10.17
2022-09-30T05:40:39.024Z,10.18
2022-09-30T05:43:24.740Z,10.21
2022-09-30T05:46:10.184Z,10.25
2022-09-30T05:48:55.772Z,10.28
2022-09-30T05:51:41.141Z,10.34
2022-09-30T05:54:26.665Z,10.37
2022-09-30T05:57:11.877Z,10.38
2022-09-30T05:59:58.161Z,10.41
2022-09-30T06:02:44.728Z,10.43
2022-09-30T06:05:29.978Z,10.48
2022-09-30T06:08:16.143Z,10.50
2022-09-30T06:11:02.109Z,10.53
2022-09-30T06:13:49.264Z,10.59
2022-09-30T06:16:35.006Z,10.64
2022-09-30T06:19:21.309Z,10.70
2022-09-30T06:22:07.158Z,10.73
2022-09-30T06:24:55.125Z,10.79
2022-09-30T06:27:46.559Z,10.83
2022-09-30T06:30:35.194Z,10.85
2022-09-30T06:33:22.426Z,10.87
2022-09-30T06:36:08.081Z,10.96
2022-09-30T06:38:54.575Z,11.00
2022-09-30T06:41:44.164Z,11.03
2022-09-30T06:44:47.965Z,11.04
2022-09-30T06:47:35.190Z,11.07
2022-09-30T06:50:25.683Z,11.06
2022-09-30T06:53:13.195Z,11.11
2022-09-30T06:55:58.659Z,11.16
2022-09-30T06:58:47.520Z,11.15
2022-09-30T07:01:33.023Z,11.16
2022-09-30T07:04:18.718Z,11.18
2022-09-30T07:07:04.419Z,11.22
2022-09-30T07:09:50.140Z,11.28
2022-09-30T07:12:36.339Z,11.38
2022-09-30T07:15:23.330Z,11.44
2022-09-30T07:18:08.996Z,11.49
2022-09-30T07:20:56.101Z,11.52
2022-09-30T07:23:48.155Z,11.56
2022-09-30T07:26:33.830Z,11.63
2022-09-30T07:29:19.293Z,11.69
2022-09-30T07:32:05.017Z,11.69
2022-09-30T07:34:50.760Z,11.75
2022-09-30T07:37:36.361Z,11.78
2022-09-30T07:40:21.889Z,11.78
2022-09-30T07:43:07.183Z,11.82
2022-09-30T07:45:56.299Z,11.86
2022-09-30T07:48:47.161Z,12.08
2022-09-30T07:51:36.865Z,12.18
2022-09-30T07:54:29.237Z,12.20
2022-09-30T07:57:15.180Z,12.24
2022-09-30T08:00:12.033Z,12.27
2022-09-30T08:03:06.308Z,12.29
2022-09-30T08:05:51.961Z,12.32
2022-09-30T08:08:38.185Z,12.34
2022-09-30T08:11:24.530Z,12.34
2022-09-30T08:14:19.417Z,12.36
2022-09-30T08:17:04.786Z,12.41
2022-09-30T08:19:50.185Z,12.49
2022-09-30T08:22:35.590Z,12.44
2022-09-30T08:25:24.566Z,12.46
2022-09-30T08:28:09.953Z,12.50
2022-09-30T08:30:55.493Z,12.53
2022-09-30T08:33:42.151Z,12.55
2022-09-30T08:36:28.095Z,12.61
2022-09-30T08:39:13.891Z,12.63
2022-09-30T08:42:36.554Z,12.67
2022-09-30T08:45:37.433Z,12.73
2022-09-30T08:48:35.457Z,12.80
2022-09-30T08:51:38.513Z,12.84
2022-09-30T08:54:30.116Z,12.91
2022-09-30T08:57:16.957Z,12.96
2022-09-30T09:00:09.091Z,12.97
2022-09-30T09:02:59.950Z,12.99
2022-09-30T09:05:54.839Z,13.02
2022-09-30T09:08:53.887Z,13.09
2022-09-30T09:11:56.617Z,13.18
2022-09-30T09:15:09.364Z,13.28
2022-09-30T09:18:23.186Z,13.38
2022-09-30T09:21:32.181Z,13.48
2022-09-30T09:24:21.817Z,13.61
2022-09-30T09:27:21.325Z,13.71
2022-09-30T09:30:10.994Z,13.74
2022-09-30T09:33:01.009Z,13.85
2022-09-30T09:36:05.189Z,13.92
2022-09-30T09:39:11.971Z,13.97
2022-09-30T09:42:05.911Z,13.93
2022-09-30T09:45:05.075Z,13.88
2022-09-30T09:47:54.235Z,13.88
2022-09-30T09:51:06.843Z,13.88
2022-09-30T09:53:59.430Z,13.90
2022-09-30T09:56:45.101Z,13.99
2022-09-30T09:59:31.455Z,14.04
2022-09-30T10:02:26.384Z,14.06
2022-09-30T10:05:26.327Z,14.10
2022-09-30T10:08:22.849Z,14.08
2022-09-30T10:11:21.112Z,14.06
2022-09-30T10:14:20.555Z,14.05
2022-09-30T10:17:17.980Z,14.06
2022-09-30T10:20:08.884Z,14.07
2022-09-30T10:23:19.390Z,14.12
2022-09-30T10:26:14.019Z,14.15
2022-09-30T10:29:02.467Z,14.20
2022-09-30T10:31:50.817Z,14.20
2022-09-30T10:34:44.122Z,14.29
2022-09-30T10:37:29.758Z,14.33
2022-09-30T10:40:18.609Z,14.40
2022-09-30T10:43:04.167Z,14.44
2022-09-30T10:46:13.517Z,14.45
2022-09-30T10:48:59.018Z,14.46
2022-09-30T10:51:46.202Z,14.52
2022-09-30T10:54:40.837Z,14.57
2022-09-30T10:57:32.634Z,14.64
2022-09-30T11:00:22.038Z,14.73
2022-09-30T11:03:13.503Z,14.86
2022-09-30T11:06:00.485Z,14.92
2022-09-30T11:09:10.502Z,14.99
2022-09-30T11:12:02.766Z,15.06
2022-09-30T11:15:08.173Z,15.12
2022-09-30T11:18:11.897Z,15.20
2022-09-30T11:21:02.030Z,15.24
2022-09-30T11:23:55.208Z,15.25
2022-09-30T11:26:44.017Z,15.33
2022-09-30T11:29:49.484Z,15.39
2022-09-30T11:33:05.592Z,15.43
2022-09-30T11:36:32.545Z,15.49
2022-09-30T11:39:55.343Z,15.46
2022-09-30T11:43:21.973Z,15.48
2022-09-30T11:46:28.983Z,15.46
2022-09-30T11:49:30.253Z,15.43
2022-09-30T11:52:35.548Z,15.36
2022-09-30T11:55:39.943Z,15.28
2022-09-30T11:58:47.068Z,15.19
2022-09-30T12:01:44.652Z,15.17
2022-09-30T12:04:40.697Z,15.14
2022-09-30T12:07:44.933Z,15.11
2022-09-30T12:10:39.090Z,15.07
2022-09-30T12:13:30.018Z,15.03
2022-09-30T12:16:20.216Z,14.97
2022-09-30T12:19:15.516Z,14.93
2022-09-30T12:22:28.790Z,14.93
2022-09-30T12:25:22.392Z,15.00
2022-09-30T12:28:43.199Z,15.02
2022-09-30T12:32:04.042Z,15.05
2022-09-30T12:34:52.692Z,15.00
2022-09-30T12:37:48.755Z,15.08
2022-09-30T12:40:52.076Z,15.13
2022-09-30T12:43:59.215Z,15.19
2022-09-30T12:47:12.292Z,15.05
2022-09-30T12:50:00.726Z,14.99
2022-09-30T12:52:46.670Z,14.92
2022-09-30T12:55:40.582Z,14.99
2022-09-30T12:58:31.684Z,15.19
2022-09-30T13:01:37.129Z,15.46
2022-09-30T13:04:39.188Z,15.66
2022-09-30T13:07:24.447Z,15.84
2022-09-30T13:10:27.389Z,15.99
2022-09-30T13:13:13.073Z,16.22
2022-09-30T13:16:03.796Z,16.54
2022-09-30T13:18:52.306Z,16.68
2022-09-30T13:21:37.525Z,16.76
2022-09-30T13:25:00.862Z,16.85
2022-09-30T13:28:13.623Z,16.88
2022-09-30T13:31:23.889Z,16.75
2022-09-30T13:34:21.510Z,16.85
2022-09-30T13:37:34.485Z,16.99
2022-09-30T13:40:43.334Z,17.23
2022-09-30T13:43:39.265Z,17.16
2022-09-30T13:46:43.499Z,16.88
2022-09-30T13:49:56.545Z,17.03
2022-09-30T13:52:45.995Z,17.39
2022-09-30T13:55:47.718Z,17.40
2022-09-30T13:58:55.173Z,17.30
2022-09-30T14:01:50.240Z,17.45
2022-09-30T14:04:50.786Z,17.65
2022-09-30T14:08:01.108Z,17.78
2022-09-30T14:11:04.887Z,17.83
2022-09-30T14:13:53.153Z,17.90
2022-09-30T14:16:53.538Z,17.68
2022-09-30T14:19:48.512Z,17.41
2022-09-30T14:22:36.931Z,17.38
2022-09-30T14:25:22.926Z,17.57
2022-09-30T14:28:23.020Z,17.70
2022-09-30T14:31:14.941Z,18.07
2022-09-30T14:34:00.620Z,18.21
2022-09-30T14:36:46.533Z,18.36
2022-09-30T14:39:34.092Z,18.39
2022-09-30T14:42:29.866Z,18.53
2022-09-30T14:45:26.957Z,18.32
2022-09-30T14:48:22.897Z,18.21
2022-09-30T14:51:16.238Z,18.11
2022-09-30T14:54:03.035Z,17.93
2022-09-30T14:56:49.821Z,17.79
2022-09-30T14:59:38.308Z,17.58
2022-09-30T15:02:26.642Z,17.51
2022-09-30T15:05:15.288Z,17.49
2022-09-30T15:08:01.177Z,17.42
2022-09-30T15:10:49.000Z,17.34
2022-09-30T15:13:36.191Z,17.34
2022-09-30T15:16:28.098Z,17.21
2022-09-30T15:19:24.082Z,17.07
2022-09-30T15:22:13.279Z,16.83
2022-09-30T15:24:59.936Z,16.77
2022-09-30T15:27:45.704Z,16.67
2022-09-30T15:30:33.139Z,16.64
2022-09-30T15:33:24.160Z,16.49
2022-09-30T15:36:28.799Z,16.53
2022-09-30T15:39:22.734Z,16.49
2022-09-30T15:42:08.409Z,16.30
2022-09-30T15:44:53.673Z,16.09
2022-09-30T15:48:13.374Z,15.88
2022-09-30T15:51:01.494Z,15.73
2022-09-30T15:53:48.474Z,15.69
2022-09-30T15:56:37.131Z,15.66
2022-09-30T15:59:23.229Z,15.59
2022-09-30T16:02:11.379Z,15.53
2022-09-30T16:04:58.723Z,15.48
2022-09-30T16:07:44.457Z,15.45
2022-09-30T16:10:30.417Z,15.45
2022-09-30T16:13:16.567Z,15.47
2022-09-30T16:16:02.459Z,15.44
2022-09-30T16:18:49.168Z,15.42
2022-09-30T16:21:45.267Z,15.36
2022-09-30T16:24:32.316Z,15.32
2022-09-30T16:27:31.365Z,15.28
2022-09-30T16:30:19.206Z,15.26
2022-09-30T16:33:06.284Z,15.20
2022-09-30T16:35:52.172Z,15.13
2022-09-30T16:38:38.902Z,15.06
2022-09-30T16:41:26.075Z,15.00
2022-09-30T16:44:11.449Z,14.92
2022-09-30T16:46:56.693Z,14.85
2022-09-30T16:49:43.322Z,14.77
2022-09-30T16:52:28.708Z,14.68
2022-09-30T16:58:05.519Z,14.60
2022-09-30T17:00:52.420Z,14.57
2022-09-30T17:03:37.995Z,14.53
2022-09-30T17:06:32.068Z,14.47
2022-09-30T17:09:17.811Z,14.36
2022-09-30T17:12:03.242Z,14.29
2022-09-30T17:14:49.201Z,14.23
2022-09-30T17:17:34.740Z,14.20
2022-09-30T17:20:21.422Z,14.18
2022-09-30T17:23:07.626Z,14.15
2022-09-30T17:25:54.866Z,14.11
2022-09-30T17:28:40.667Z,14.05
2022-09-30T17:31:26.260Z,13.95
2022-09-30T17:34:12.201Z,13.87
2022-09-30T17:36:58.118Z,13.80
2022-09-30T17:39:43.574Z,13.74
2022-09-30T17:42:47.563Z,13.70
2022-09-30T17:45:41.985Z,13.63
2022-09-30T17:48:27.280Z,13.53
2022-09-30T17:51:13.351Z,13.43
2022-09-30T17:53:58.897Z,13.37
2022-09-30T17:56:44.707Z,13.29
2022-09-30T17:59:30.128Z,13.26
2022-09-30T18:02:17.758Z,13.18
2022-09-30T18:05:03.907Z,13.15
2022-09-30T18:07:49.593Z,13.09
2022-09-30T18:10:38.725Z,13.05
2022-09-30T18:13:28.546Z,12.99
2022-09-30T18:16:13.896Z,12.92
2022-09-30T18:19:05.378Z,12.85
2022-09-30T18:21:50.907Z,12.79
2022-09-30T18:24:55.528Z,12.72
2022-09-30T18:27:41.015Z,12.72
2022-09-30T18:30:26.998Z,12.66
2022-09-30T18:33:13.491Z,12.58
2022-09-30T18:36:01.100Z,12.51
2022-09-30T18:38:46.959Z,12.49
2022-09-30T18:41:35.346Z,12.47
2022-09-30T18:44:21.369Z,12.46
2022-09-30T18:47:06.938Z,12.40
2022-09-30T18:49:52.454Z,12.42
2022-09-30T18:52:38.570Z,12.47
2022-09-30T18:55:25.090Z,12.52
2022-09-30T18:58:10.719Z,12.53
2022-09-30T19:00:56.876Z,12.53
2022-09-30T19:03:42.428Z,12.50
2022-09-30T19:06:27.746Z,12.46
2022-09-30T19:09:14.358Z,12.43
2022-09-30T19:12:01.741Z,12.41
2022-09-30T19:14:47.962Z,12.44
2022-09-30T19:17:33.829Z,12.45
2022-09-30T19:20:19.711Z,12.40
2022-09-30T19:23:08.907Z,12.32
2022-09-30T19:25:54.418Z,12.25
2022-09-30T19:28:40.172Z,12.25
2022-09-30T19:31:26.338Z,12.25
2022-09-30T19:34:16.794Z,12.22
2022-09-30T19:37:07.169Z,12.25
2022-09-30T19:39:55.235Z,12.26
2022-09-30T19:42:41.852Z,12.24
2022-09-30T19:45:28.178Z,12.21
2022-09-30T19:48:13.779Z,12.13
2022-09-30T19:51:10.751Z,12.07
2022-09-30T19:54:05.176Z,12.02
2022-09-30T19:56:52.683Z,12.01
2022-09-30T19:59:38.048Z,11.97
2022-09-30T20:02:24.382Z,11.91
2022-09-30T20:05:10.054Z,11.91
2022-09-30T20:07:55.851Z,11.90
2022-09-30T20:10:41.647Z,11.91
2022-09-30T20:13:26.966Z,11.93
2022-09-30T20:16:15.070Z,11.89
2022-09-30T20:19:00.711Z,11.85
2022-09-30T20:21:46.949Z,11.86
2022-09-30T20:24:32.360Z,11.86
2022-09-30T20:27:17.727Z,11.90
2022-09-30T20:30:03.265Z,11.88
2022-09-30T20:32:49.097Z,11.86
2022-09-30T20:35:37.323Z,11.88
2022-09-30T20:38:25.078Z,11.84
2022-09-30T20:41:10.652Z,11.87
2022-09-30T20:43:56.429Z,11.90
2022-09-30T20:46:42.530Z,11.93
2022-09-30T20:49:28.742Z,11.96
2022-09-30T20:52:14.694Z,11.97
2022-09-30T20:55:00.489Z,11.95
2022-09-30T20:57:46.150Z,11.88
2022-09-30T21:00:35.268Z,11.82
2022-09-30T21:03:21.566Z,11.76
2022-09-30T21:06:11.199Z,11.73
2022-09-30T21:08:57.316Z,11.73
2022-09-30T21:11:42.777Z,11.82
2022-09-30T21:14:28.357Z,11.87
2022-09-30T21:17:13.963Z,11.91
2022-09-30T21:19:59.827Z,11.93
2022-09-30T21:22:45.351Z,11.97
2022-09-30T21:25:31.151Z,11.98
2022-09-30T21:28:16.807Z,11.96
2022-09-30T21:31:08.058Z,11.93
2022-09-30T21:33:58.682Z,11.85
2022-09-30T21:36:45.292Z,11.76
2022-09-30T21:39:30.846Z,11.73
2022-09-30T21:42:16.603Z,11.69
2022-09-30T21:45:02.765Z,11.63
2022-09-30T21:47:49.904Z,11.61
2022-09-30T21:50:36.778Z,11.62
2022-09-30T21:53:27.310Z,11.56
2022-09-30T21:56:13.193Z,11.52
2022-09-30T21:58:58.763Z,11.51
2022-09-30T22:01:44.473Z,11.48
2022-09-30T22:04:29.905Z,11.40
2022-09-30T22:07:15.630Z,11.34
2022-09-30T22:10:01.206Z,11.24
2022-09-30T22:12:46.779Z,11.18
2022-09-30T22:15:34.952Z,11.15
2022-09-30T22:18:21.630Z,11.08
2022-09-30T22:21:12.188Z,11.01
2022-09-30T22:23:58.482Z,10.94
2022-09-30T22:26:44.878Z,10.93
2022-09-30T22:29:32.514Z,10.91
2022-09-30T22:32:17.873Z,10.88
2022-09-30T22:35:22.517Z,10.85
2022-09-30T22:38:17.155Z,10.87
2022-09-30T22:41:03.028Z,10.85
2022-09-30T22:43:48.970Z,10.80
2022-09-30T22:46:35.190Z,10.79
2022-09-30T22:49:21.855Z,10.77
2022-09-30T22:52:07.331Z,10.79
2022-09-30T22:54:53.955Z,10.76
2022-09-30T22:57:39.374Z,10.75
2022-09-30T23:00:24.780Z,10.75
2022-09-30T23:03:10.244Z,10.76
2022-09-30T23:06:05.607Z,10.72
2022-09-30T23:08:52.579Z,10.66
2022-09-30T23:11:39.358Z,10.70
2022-09-30T23:14:25.081Z,10.67
2022-09-30T23:17:10.535Z,10.71
2022-09-30T23:19:55.909Z,10.71
2022-09-30T23:22:41.105Z,10.70
2022-09-30T23:25:26.442Z,10.67
2022-09-30T23:28:11.890Z,10.64
2022-09-30T23:31:03.436Z,10.61
2022-09-30T23:33:50.831Z,10.59
2022-09-30T23:36:37.335Z,10.60
2022-09-30T23:39:22.768Z,10.63
2022-09-30T23:42:08.199Z,10.63
2022-09-30T23:44:53.860Z,10.61
2022-09-30T23:47:39.232Z,10.63
2022-09-30T23:50:25.394Z,10.67
2022-09-30T23:53:11.104Z,10.73
2022-09-30T23:55:58.743Z,10.70
2022-09-30T23:58:45.848Z,10.70
